sensor_id;sensor_type;location;lat;lon;timestamp;temperature;humidity
23089;DHT22;11713;48.506;8.966;2023-05-10T00:00:03;14.70;99.90
23089;DHT22;11713;48.506;8.966;2023-05-10T00:02:40;14.60;99.90
23089;DHT22;11713;48.506;8.966;2023-05-10T00:05:07;14.60;99.90
23089;DHT22;11713;48.506;8.966;2023-05-10T00:07:35;14.50;99.90
23089;DHT22;11713;48.506;8.966;2023-05-10T00:10:02;14.40;99.90
23089;DHT22;11713;48.506;8.966;2023-05-10T00:12:28;14.40;99.90
23089;DHT22;11713;48.506;8.966;2023-05-10T00:14:54;14.40;99.90
23089;DHT22;11713;48.506;8.966;2023-05-10T00:17:19;14.30;99.90
23089;DHT22;11713;48.506;8.966;2023-05-10T00:19:46;14.30;99.90
23089;DHT22;11713;48.506;8.966;2023-05-10T00:22:12;14.30;99.90
23089;DHT22;11713;48.506;8.966;2023-05-10T00:24:37;14.20;99.90
23089;DHT22;11713;48.506;8.966;2023-05-10T00:27:03;14.20;99.90
23089;DHT22;11713;48.506;8.966;2023-05-10T00:29:29;14.20;99.90
23089;DHT22;11713;48.506;8.966;2023-05-10T00:31:58;14.10;99.90
23089;DHT22;11713;48.506;8.966;2023-05-10T00:34:25;14.10;99.90
23089;DHT22;11713;48.506;8.966;2023-05-10T00:36:51;14.10;99.90
23089;DHT22;11713;48.506;8.966;2023-05-10T00:39:17;14.10;99.90
23089;DHT22;11713;48.506;8.966;2023-05-10T00:41:43;14.10;99.90
23089;DHT22;11713;48.506;8.966;2023-05-10T00:44:09;14.10;99.90
23089;DHT22;11713;48.506;8.966;2023-05-10T00:46:36;14.20;99.90
23089;DHT22;11713;48.506;8.966;2023-05-10T00:49:02;14.20;99.90
23089;DHT22;11713;48.506;8.966;2023-05-10T00:51:29;14.20;99.90
23089;DHT22;11713;48.506;8.966;2023-05-10T00:53:55;14.30;99.90
23089;DHT22;11713;48.506;8.966;2023-05-10T00:56:21;14.30;99.90
23089;DHT22;11713;48.506;8.966;2023-05-10T00:58:49;14.30;99.90
23089;DHT22;11713;48.506;8.966;2023-05-10T01:01:14;14.30;99.90
23089;DHT22;11713;48.506;8.966;2023-05-10T01:03:41;14.30;99.90
23089;DHT22;11713;48.506;8.966;2023-05-10T01:06:07;14.30;99.90
23089;DHT22;11713;48.506;8.966;2023-05-10T01:08:36;14.30;99.90
23089;DHT22;11713;48.506;8.966;2023-05-10T01:11:02;14.30;99.90
23089;DHT22;11713;48.506;8.966;2023-05-10T01:13:38;14.30;99.90
23089;DHT22;11713;48.506;8.966;2023-05-10T01:16:06;14.20;99.90
23089;DHT22;11713;48.506;8.966;2023-05-10T01:18:40;14.20;99.90
23089;DHT22;11713;48.506;8.966;2023-05-10T01:21:33;14.20;99.90
23089;DHT22;11713;48.506;8.966;2023-05-10T01:24:39;14.20;99.90
23089;DHT22;11713;48.506;8.966;2023-05-10T01:35:07;14.10;99.90
23089;DHT22;11713;48.506;8.966;2023-05-10T01:37:52;14.10;99.90
23089;DHT22;11713;48.506;8.966;2023-05-10T01:40:39;14.00;99.90
23089;DHT22;11713;48.506;8.966;2023-05-10T01:43:13;14.00;99.90
23089;DHT22;11713;48.506;8.966;2023-05-10T01:46:01;14.00;99.90
23089;DHT22;11713;48.506;8.966;2023-05-10T01:48:31;14.00;99.90
23089;DHT22;11713;48.506;8.966;2023-05-10T01:50:59;14.00;99.90
23089;DHT22;11713;48.506;8.966;2023-05-10T01:53:26;13.90;99.90
23089;DHT22;11713;48.506;8.966;2023-05-10T01:55:55;14.00;99.90
23089;DHT22;11713;48.506;8.966;2023-05-10T01:58:32;14.00;99.90
23089;DHT22;11713;48.506;8.966;2023-05-10T02:01:01;14.00;99.90
23089;DHT22;11713;48.506;8.966;2023-05-10T02:03:31;14.00;99.90
23089;DHT22;11713;48.506;8.966;2023-05-10T02:06:05;14.10;99.90
23089;DHT22;11713;48.506;8.966;2023-05-10T02:08:33;14.10;99.90
23089;DHT22;11713;48.506;8.966;2023-05-10T02:11:03;14.00;99.90
23089;DHT22;11713;48.506;8.966;2023-05-10T02:13:31;14.00;99.90
23089;DHT22;11713;48.506;8.966;2023-05-10T02:15:59;14.00;99.90
23089;DHT22;11713;48.506;8.966;2023-05-10T02:18:27;14.00;99.90
23089;DHT22;11713;48.506;8.966;2023-05-10T02:20:54;13.90;99.90
23089;DHT22;11713;48.506;8.966;2023-05-10T02:23:20;13.90;99.90
23089;DHT22;11713;48.506;8.966;2023-05-10T02:25:48;13.90;99.90
23089;DHT22;11713;48.506;8.966;2023-05-10T02:28:15;13.90;99.90
23089;DHT22;11713;48.506;8.966;2023-05-10T02:30:43;14.00;99.90
23089;DHT22;11713;48.506;8.966;2023-05-10T02:33:11;14.00;99.90
23089;DHT22;11713;48.506;8.966;2023-05-10T02:35:38;13.90;99.90
23089;DHT22;11713;48.506;8.966;2023-05-10T02:38:05;14.00;99.90
23089;DHT22;11713;48.506;8.966;2023-05-10T02:40:32;13.90;99.90
23089;DHT22;11713;48.506;8.966;2023-05-10T02:43:01;13.90;99.90
23089;DHT22;11713;48.506;8.966;2023-05-10T02:45:31;13.90;99.90
23089;DHT22;11713;48.506;8.966;2023-05-10T02:47:58;13.90;99.90
23089;DHT22;11713;48.506;8.966;2023-05-10T02:50:27;13.90;99.90
23089;DHT22;11713;48.506;8.966;2023-05-10T02:52:59;13.90;99.90
23089;DHT22;11713;48.506;8.966;2023-05-10T02:55:27;13.90;99.90
23089;DHT22;11713;48.506;8.966;2023-05-10T02:58:00;13.90;99.90
23089;DHT22;11713;48.506;8.966;2023-05-10T03:00:26;13.90;99.90
23089;DHT22;11713;48.506;8.966;2023-05-10T03:02:52;13.90;99.90
23089;DHT22;11713;48.506;8.966;2023-05-10T03:05:19;14.00;99.90
23089;DHT22;11713;48.506;8.966;2023-05-10T03:07:45;13.90;99.90
23089;DHT22;11713;48.506;8.966;2023-05-10T03:10:13;13.90;99.90
23089;DHT22;11713;48.506;8.966;2023-05-10T03:13:12;13.90;99.90
23089;DHT22;11713;48.506;8.966;2023-05-10T03:18:42;13.90;99.90
23089;DHT22;11713;48.506;8.966;2023-05-10T03:21:11;13.90;99.90
23089;DHT22;11713;48.506;8.966;2023-05-10T03:23:48;13.80;99.90
23089;DHT22;11713;48.506;8.966;2023-05-10T03:26:37;13.80;99.90
23089;DHT22;11713;48.506;8.966;2023-05-10T03:29:13;13.80;99.90
23089;DHT22;11713;48.506;8.966;2023-05-10T03:31:40;13.80;99.90
23089;DHT22;11713;48.506;8.966;2023-05-10T03:34:07;13.70;99.90
23089;DHT22;11713;48.506;8.966;2023-05-10T03:36:33;13.70;99.90
23089;DHT22;11713;48.506;8.966;2023-05-10T03:38:59;13.70;99.90
23089;DHT22;11713;48.506;8.966;2023-05-10T03:41:25;13.70;99.90
23089;DHT22;11713;48.506;8.966;2023-05-10T03:43:52;13.70;99.90
23089;DHT22;11713;48.506;8.966;2023-05-10T03:46:23;13.70;99.90
23089;DHT22;11713;48.506;8.966;2023-05-10T03:48:50;13.70;99.90
23089;DHT22;11713;48.506;8.966;2023-05-10T03:51:17;13.70;99.90
23089;DHT22;11713;48.506;8.966;2023-05-10T03:53:44;13.70;99.90
23089;DHT22;11713;48.506;8.966;2023-05-10T03:56:11;13.80;99.90
23089;DHT22;11713;48.506;8.966;2023-05-10T03:58:37;13.80;99.90
23089;DHT22;11713;48.506;8.966;2023-05-10T04:01:03;13.80;99.90
23089;DHT22;11713;48.506;8.966;2023-05-10T04:03:29;13.70;99.90
23089;DHT22;11713;48.506;8.966;2023-05-10T04:06:00;13.70;99.90
23089;DHT22;11713;48.506;8.966;2023-05-10T04:08:26;13.70;99.90
23089;DHT22;11713;48.506;8.966;2023-05-10T04:10:53;13.70;99.90
23089;DHT22;11713;48.506;8.966;2023-05-10T04:13:19;13.70;99.90
23089;DHT22;11713;48.506;8.966;2023-05-10T04:15:45;13.70;99.90
23089;DHT22;11713;48.506;8.966;2023-05-10T04:18:10;13.70;99.90
23089;DHT22;11713;48.506;8.966;2023-05-10T04:20:37;13.70;99.90
23089;DHT22;11713;48.506;8.966;2023-05-10T04:23:02;13.70;99.90
23089;DHT22;11713;48.506;8.966;2023-05-10T04:25:28;13.70;99.90
23089;DHT22;11713;48.506;8.966;2023-05-10T04:27:54;13.70;99.90
23089;DHT22;11713;48.506;8.966;2023-05-10T04:30:20;13.60;99.90
23089;DHT22;11713;48.506;8.966;2023-05-10T04:32:45;13.70;99.90
23089;DHT22;11713;48.506;8.966;2023-05-10T04:35:11;13.60;99.90
23089;DHT22;11713;48.506;8.966;2023-05-10T04:37:37;13.50;99.90
23089;DHT22;11713;48.506;8.966;2023-05-10T04:40:03;13.60;99.90
23089;DHT22;11713;48.506;8.966;2023-05-10T04:42:29;13.50;99.90
23089;DHT22;11713;48.506;8.966;2023-05-10T04:44:55;13.50;99.90
23089;DHT22;11713;48.506;8.966;2023-05-10T04:47:21;13.60;99.90
23089;DHT22;11713;48.506;8.966;2023-05-10T04:49:47;13.60;99.90
23089;DHT22;11713;48.506;8.966;2023-05-10T04:52:13;13.60;99.90
23089;DHT22;11713;48.506;8.966;2023-05-10T04:54:40;13.60;99.90
23089;DHT22;11713;48.506;8.966;2023-05-10T04:57:06;13.60;99.90
23089;DHT22;11713;48.506;8.966;2023-05-10T04:59:32;13.70;99.90
23089;DHT22;11713;48.506;8.966;2023-05-10T05:01:57;13.70;99.90
23089;DHT22;11713;48.506;8.966;2023-05-10T05:04:23;13.70;99.90
23089;DHT22;11713;48.506;8.966;2023-05-10T05:06:49;13.60;99.90
23089;DHT22;11713;48.506;8.966;2023-05-10T05:09:15;13.70;99.90
23089;DHT22;11713;48.506;8.966;2023-05-10T05:11:42;13.70;99.90
23089;DHT22;11713;48.506;8.966;2023-05-10T05:14:08;13.70;99.90
23089;DHT22;11713;48.506;8.966;2023-05-10T05:16:34;13.70;99.90
23089;DHT22;11713;48.506;8.966;2023-05-10T05:19:00;13.70;99.90
23089;DHT22;11713;48.506;8.966;2023-05-10T05:21:26;13.60;99.90
23089;DHT22;11713;48.506;8.966;2023-05-10T05:23:52;13.60;99.90
23089;DHT22;11713;48.506;8.966;2023-05-10T05:26:18;13.60;99.90
23089;DHT22;11713;48.506;8.966;2023-05-10T05:28:44;13.60;99.90
23089;DHT22;11713;48.506;8.966;2023-05-10T05:31:10;13.60;99.90
23089;DHT22;11713;48.506;8.966;2023-05-10T05:33:36;13.50;99.90
23089;DHT22;11713;48.506;8.966;2023-05-10T05:36:06;13.50;99.90
23089;DHT22;11713;48.506;8.966;2023-05-10T05:38:32;13.50;99.90
23089;DHT22;11713;48.506;8.966;2023-05-10T05:40:58;13.60;99.90
23089;DHT22;11713;48.506;8.966;2023-05-10T05:43:23;13.60;99.90
23089;DHT22;11713;48.506;8.966;2023-05-10T05:45:52;13.60;99.90
23089;DHT22;11713;48.506;8.966;2023-05-10T05:48:21;13.60;99.90
23089;DHT22;11713;48.506;8.966;2023-05-10T05:50:48;13.60;99.90
23089;DHT22;11713;48.506;8.966;2023-05-10T05:53:14;13.70;99.90
23089;DHT22;11713;48.506;8.966;2023-05-10T05:55:40;13.70;99.90
23089;DHT22;11713;48.506;8.966;2023-05-10T05:58:06;13.70;99.90
23089;DHT22;11713;48.506;8.966;2023-05-10T06:00:33;13.70;99.90
23089;DHT22;11713;48.506;8.966;2023-05-10T06:03:00;13.70;99.90
23089;DHT22;11713;48.506;8.966;2023-05-10T06:05:26;13.70;99.90
23089;DHT22;11713;48.506;8.966;2023-05-10T06:07:51;13.70;99.90
23089;DHT22;11713;48.506;8.966;2023-05-10T06:10:17;13.70;99.90
23089;DHT22;11713;48.506;8.966;2023-05-10T06:12:43;13.80;99.90
23089;DHT22;11713;48.506;8.966;2023-05-10T06:15:09;13.80;99.90
23089;DHT22;11713;48.506;8.966;2023-05-10T06:17:35;13.90;99.90
23089;DHT22;11713;48.506;8.966;2023-05-10T06:20:01;13.80;99.90
23089;DHT22;11713;48.506;8.966;2023-05-10T06:22:28;13.90;99.90
23089;DHT22;11713;48.506;8.966;2023-05-10T06:24:54;13.90;99.90
23089;DHT22;11713;48.506;8.966;2023-05-10T06:27:20;13.80;99.90
23089;DHT22;11713;48.506;8.966;2023-05-10T06:29:45;13.90;99.90
23089;DHT22;11713;48.506;8.966;2023-05-10T06:32:11;13.90;99.90
23089;DHT22;11713;48.506;8.966;2023-05-10T06:34:37;13.90;99.90
23089;DHT22;11713;48.506;8.966;2023-05-10T06:37:03;13.90;99.90
23089;DHT22;11713;48.506;8.966;2023-05-10T06:39:30;13.90;99.90
23089;DHT22;11713;48.506;8.966;2023-05-10T06:41:56;13.90;99.90
23089;DHT22;11713;48.506;8.966;2023-05-10T06:44:22;13.90;99.90
23089;DHT22;11713;48.506;8.966;2023-05-10T06:46:48;13.90;99.90
23089;DHT22;11713;48.506;8.966;2023-05-10T06:49:14;13.90;99.90
23089;DHT22;11713;48.506;8.966;2023-05-10T06:51:40;13.90;99.90
23089;DHT22;11713;48.506;8.966;2023-05-10T06:54:06;13.80;99.90
23089;DHT22;11713;48.506;8.966;2023-05-10T06:56:32;13.90;99.90
23089;DHT22;11713;48.506;8.966;2023-05-10T06:58:58;13.80;99.90
23089;DHT22;11713;48.506;8.966;2023-05-10T07:01:23;13.70;99.90
23089;DHT22;11713;48.506;8.966;2023-05-10T07:03:49;13.70;99.90
23089;DHT22;11713;48.506;8.966;2023-05-10T07:06:16;13.80;99.90
23089;DHT22;11713;48.506;8.966;2023-05-10T07:08:41;13.80;99.90
23089;DHT22;11713;48.506;8.966;2023-05-10T07:11:07;13.80;99.90
23089;DHT22;11713;48.506;8.966;2023-05-10T07:13:34;13.90;99.90
23089;DHT22;11713;48.506;8.966;2023-05-10T07:16:00;13.90;99.90
23089;DHT22;11713;48.506;8.966;2023-05-10T07:18:34;13.90;99.90
23089;DHT22;11713;48.506;8.966;2023-05-10T07:21:49;14.00;99.90
23089;DHT22;11713;48.506;8.966;2023-05-10T07:24:16;14.00;99.90
23089;DHT22;11713;48.506;8.966;2023-05-10T07:26:44;14.00;99.90
23089;DHT22;11713;48.506;8.966;2023-05-10T07:29:11;14.00;99.90
23089;DHT22;11713;48.506;8.966;2023-05-10T07:31:37;14.10;99.90
23089;DHT22;11713;48.506;8.966;2023-05-10T07:34:03;14.10;99.90
23089;DHT22;11713;48.506;8.966;2023-05-10T07:36:31;14.10;99.90
23089;DHT22;11713;48.506;8.966;2023-05-10T07:38:58;14.10;99.90
23089;DHT22;11713;48.506;8.966;2023-05-10T07:41:25;14.10;99.90
23089;DHT22;11713;48.506;8.966;2023-05-10T07:43:53;14.20;99.90
23089;DHT22;11713;48.506;8.966;2023-05-10T07:46:19;14.20;99.90
23089;DHT22;11713;48.506;8.966;2023-05-10T07:48:46;14.20;99.90
23089;DHT22;11713;48.506;8.966;2023-05-10T07:51:12;14.30;99.90
23089;DHT22;11713;48.506;8.966;2023-05-10T07:53:39;14.30;99.90
23089;DHT22;11713;48.506;8.966;2023-05-10T07:56:22;14.40;99.90
23089;DHT22;11713;48.506;8.966;2023-05-10T07:58:48;14.50;99.90
23089;DHT22;11713;48.506;8.966;2023-05-10T08:01:13;14.60;99.90
23089;DHT22;11713;48.506;8.966;2023-05-10T08:03:40;14.60;99.90
23089;DHT22;11713;48.506;8.966;2023-05-10T08:06:06;14.70;99.90
23089;DHT22;11713;48.506;8.966;2023-05-10T08:08:31;14.70;99.90
23089;DHT22;11713;48.506;8.966;2023-05-10T08:10:57;14.80;99.90
23089;DHT22;11713;48.506;8.966;2023-05-10T08:13:25;14.90;99.90
23089;DHT22;11713;48.506;8.966;2023-05-10T08:15:51;15.00;99.90
23089;DHT22;11713;48.506;8.966;2023-05-10T08:18:19;15.00;99.90
23089;DHT22;11713;48.506;8.966;2023-05-10T08:20:46;15.10;99.90
23089;DHT22;11713;48.506;8.966;2023-05-10T08:23:12;15.20;99.90
23089;DHT22;11713;48.506;8.966;2023-05-10T08:25:39;15.20;99.90
23089;DHT22;11713;48.506;8.966;2023-05-10T08:28:04;15.30;99.90
23089;DHT22;11713;48.506;8.966;2023-05-10T08:30:30;15.30;99.90
23089;DHT22;11713;48.506;8.966;2023-05-10T08:32:56;15.30;99.90
23089;DHT22;11713;48.506;8.966;2023-05-10T08:35:22;15.30;99.90
23089;DHT22;11713;48.506;8.966;2023-05-10T08:37:48;15.40;99.90
23089;DHT22;11713;48.506;8.966;2023-05-10T08:40:14;15.50;99.90
23089;DHT22;11713;48.506;8.966;2023-05-10T08:42:45;15.60;99.90
23089;DHT22;11713;48.506;8.966;2023-05-10T08:45:15;15.70;99.90
23089;DHT22;11713;48.506;8.966;2023-05-10T08:47:42;15.70;99.90
23089;DHT22;11713;48.506;8.966;2023-05-10T08:50:10;15.70;99.90
23089;DHT22;11713;48.506;8.966;2023-05-10T08:52:38;15.80;99.90
23089;DHT22;11713;48.506;8.966;2023-05-10T08:55:16;15.90;99.90
23089;DHT22;11713;48.506;8.966;2023-05-10T08:57:42;15.90;99.90
23089;DHT22;11713;48.506;8.966;2023-05-10T09:00:09;16.00;99.90
23089;DHT22;11713;48.506;8.966;2023-05-10T09:02:37;16.00;99.90
23089;DHT22;11713;48.506;8.966;2023-05-10T09:05:03;16.00;99.90
23089;DHT22;11713;48.506;8.966;2023-05-10T09:07:30;16.00;99.90
23089;DHT22;11713;48.506;8.966;2023-05-10T09:09:58;16.00;99.90
23089;DHT22;11713;48.506;8.966;2023-05-10T09:12:24;16.00;99.90
23089;DHT22;11713;48.506;8.966;2023-05-10T09:14:51;16.10;99.90
23089;DHT22;11713;48.506;8.966;2023-05-10T09:17:18;16.10;99.90
23089;DHT22;11713;48.506;8.966;2023-05-10T09:19:45;16.20;99.90
23089;DHT22;11713;48.506;8.966;2023-05-10T09:22:12;16.20;99.90
23089;DHT22;11713;48.506;8.966;2023-05-10T09:24:39;16.40;99.90
23089;DHT22;11713;48.506;8.966;2023-05-10T09:27:09;16.50;99.90
23089;DHT22;11713;48.506;8.966;2023-05-10T09:29:44;16.50;99.90
23089;DHT22;11713;48.506;8.966;2023-05-10T09:32:10;16.70;99.90
23089;DHT22;11713;48.506;8.966;2023-05-10T09:34:36;16.80;99.90
23089;DHT22;11713;48.506;8.966;2023-05-10T09:37:05;16.90;99.90
23089;DHT22;11713;48.506;8.966;2023-05-10T09:39:38;17.00;99.90
23089;DHT22;11713;48.506;8.966;2023-05-10T09:42:07;17.00;99.90
23089;DHT22;11713;48.506;8.966;2023-05-10T09:44:34;17.10;99.90
23089;DHT22;11713;48.506;8.966;2023-05-10T09:47:04;17.20;99.90
23089;DHT22;11713;48.506;8.966;2023-05-10T09:49:31;17.10;99.90
23089;DHT22;11713;48.506;8.966;2023-05-10T09:52:05;16.90;99.90
23089;DHT22;11713;48.506;8.966;2023-05-10T09:54:32;16.60;99.90
23089;DHT22;11713;48.506;8.966;2023-05-10T09:56:59;16.30;99.90
23089;DHT22;11713;48.506;8.966;2023-05-10T09:59:26;16.00;99.90
23089;DHT22;11713;48.506;8.966;2023-05-10T10:01:59;15.70;99.90
23089;DHT22;11713;48.506;8.966;2023-05-10T10:04:26;15.60;99.90
23089;DHT22;11713;48.506;8.966;2023-05-10T10:07:04;15.50;99.90
23089;DHT22;11713;48.506;8.966;2023-05-10T10:09:31;15.50;99.90
23089;DHT22;11713;48.506;8.966;2023-05-10T10:11:57;15.40;99.90
23089;DHT22;11713;48.506;8.966;2023-05-10T10:14:25;15.50;99.90
23089;DHT22;11713;48.506;8.966;2023-05-10T10:16:52;15.60;99.90
23089;DHT22;11713;48.506;8.966;2023-05-10T10:19:21;15.60;99.90
23089;DHT22;11713;48.506;8.966;2023-05-10T10:21:47;15.70;99.90
23089;DHT22;11713;48.506;8.966;2023-05-10T10:24:13;15.80;99.90
23089;DHT22;11713;48.506;8.966;2023-05-10T10:26:40;16.00;99.90
23089;DHT22;11713;48.506;8.966;2023-05-10T10:29:56;16.20;99.90
23089;DHT22;11713;48.506;8.966;2023-05-10T10:31:57;16.40;99.90
23089;DHT22;11713;48.506;8.966;2023-05-10T10:34:29;16.50;99.90
23089;DHT22;11713;48.506;8.966;2023-05-10T10:36:57;16.60;99.90
23089;DHT22;11713;48.506;8.966;2023-05-10T10:39:24;16.60;99.90
23089;DHT22;11713;48.506;8.966;2023-05-10T10:41:54;16.70;99.90
23089;DHT22;11713;48.506;8.966;2023-05-10T10:47:21;16.80;99.90
23089;DHT22;11713;48.506;8.966;2023-05-10T10:49:54;16.90;99.90
23089;DHT22;11713;48.506;8.966;2023-05-10T10:52:31;16.90;99.90
23089;DHT22;11713;48.506;8.966;2023-05-10T10:55:30;17.00;99.90
23089;DHT22;11713;48.506;8.966;2023-05-10T10:57:57;16.80;99.90
23089;DHT22;11713;48.506;8.966;2023-05-10T11:03:10;16.70;99.90
23089;DHT22;11713;48.506;8.966;2023-05-10T11:08:13;16.50;99.90
23089;DHT22;11713;48.506;8.966;2023-05-10T11:10:40;16.30;99.90
23089;DHT22;11713;48.506;8.966;2023-05-10T11:13:10;16.10;99.90
23089;DHT22;11713;48.506;8.966;2023-05-10T11:15:38;15.80;99.90
23089;DHT22;11713;48.506;8.966;2023-05-10T11:18:22;15.70;99.90
23089;DHT22;11713;48.506;8.966;2023-05-10T11:21:01;15.60;99.90
23089;DHT22;11713;48.506;8.966;2023-05-10T11:23:32;15.50;99.90
23089;DHT22;11713;48.506;8.966;2023-05-10T11:26:00;15.50;99.90
23089;DHT22;11713;48.506;8.966;2023-05-10T11:28:27;15.40;99.90
23089;DHT22;11713;48.506;8.966;2023-05-10T11:30:54;15.40;99.90
23089;DHT22;11713;48.506;8.966;2023-05-10T11:33:20;15.40;99.90
23089;DHT22;11713;48.506;8.966;2023-05-10T11:35:46;15.20;99.90
23089;DHT22;11713;48.506;8.966;2023-05-10T11:38:13;15.10;99.90
23089;DHT22;11713;48.506;8.966;2023-05-10T11:40:39;14.80;99.90
23089;DHT22;11713;48.506;8.966;2023-05-10T11:43:05;14.80;99.90
23089;DHT22;11713;48.506;8.966;2023-05-10T11:45:35;14.70;99.90
23089;DHT22;11713;48.506;8.966;2023-05-10T11:48:01;14.80;99.90
23089;DHT22;11713;48.506;8.966;2023-05-10T11:50:28;15.00;99.90
23089;DHT22;11713;48.506;8.966;2023-05-10T11:52:55;15.10;99.90
23089;DHT22;11713;48.506;8.966;2023-05-10T11:55:22;15.20;99.90
23089;DHT22;11713;48.506;8.966;2023-05-10T11:58:00;15.30;99.90
23089;DHT22;11713;48.506;8.966;2023-05-10T12:00:27;15.30;99.90
23089;DHT22;11713;48.506;8.966;2023-05-10T12:02:53;15.30;99.90
23089;DHT22;11713;48.506;8.966;2023-05-10T12:05:19;15.30;99.90
23089;DHT22;11713;48.506;8.966;2023-05-10T12:07:45;15.30;99.90
23089;DHT22;11713;48.506;8.966;2023-05-10T12:10:12;15.30;99.90
23089;DHT22;11713;48.506;8.966;2023-05-10T12:12:45;15.20;99.90
23089;DHT22;11713;48.506;8.966;2023-05-10T12:15:24;15.30;99.90
23089;DHT22;11713;48.506;8.966;2023-05-10T12:17:51;15.40;99.90
23089;DHT22;11713;48.506;8.966;2023-05-10T12:20:21;15.40;99.90
23089;DHT22;11713;48.506;8.966;2023-05-10T12:22:52;15.50;99.90
23089;DHT22;11713;48.506;8.966;2023-05-10T12:25:19;15.60;99.90
23089;DHT22;11713;48.506;8.966;2023-05-10T12:27:56;15.60;99.90
23089;DHT22;11713;48.506;8.966;2023-05-10T12:30:27;15.60;99.90
23089;DHT22;11713;48.506;8.966;2023-05-10T12:32:53;15.50;99.90
23089;DHT22;11713;48.506;8.966;2023-05-10T12:35:19;15.50;99.90
23089;DHT22;11713;48.506;8.966;2023-05-10T12:37:50;15.50;99.90
23089;DHT22;11713;48.506;8.966;2023-05-10T12:40:16;15.50;99.90
23089;DHT22;11713;48.506;8.966;2023-05-10T12:42:44;15.60;99.90
23089;DHT22;11713;48.506;8.966;2023-05-10T12:45:11;15.70;99.90
23089;DHT22;11713;48.506;8.966;2023-05-10T12:47:37;15.80;99.90
23089;DHT22;11713;48.506;8.966;2023-05-10T12:50:04;15.80;99.90
23089;DHT22;11713;48.506;8.966;2023-05-10T12:52:30;15.90;99.90
23089;DHT22;11713;48.506;8.966;2023-05-10T12:54:58;16.00;99.90
23089;DHT22;11713;48.506;8.966;2023-05-10T12:57:25;16.00;99.90
23089;DHT22;11713;48.506;8.966;2023-05-10T12:59:51;16.00;99.90
23089;DHT22;11713;48.506;8.966;2023-05-10T13:02:17;16.00;99.90
23089;DHT22;11713;48.506;8.966;2023-05-10T13:04:47;16.00;99.90
23089;DHT22;11713;48.506;8.966;2023-05-10T13:07:13;16.00;99.90
23089;DHT22;11713;48.506;8.966;2023-05-10T13:09:39;16.00;99.90
23089;DHT22;11713;48.506;8.966;2023-05-10T13:12:05;16.00;99.90
23089;DHT22;11713;48.506;8.966;2023-05-10T13:14:31;16.00;99.90
23089;DHT22;11713;48.506;8.966;2023-05-10T13:16:57;16.10;99.90
23089;DHT22;11713;48.506;8.966;2023-05-10T13:19:23;16.10;99.90
23089;DHT22;11713;48.506;8.966;2023-05-10T13:21:49;16.30;99.90
23089;DHT22;11713;48.506;8.966;2023-05-10T13:24:24;16.30;99.90
23089;DHT22;11713;48.506;8.966;2023-05-10T13:27:03;16.40;99.90
23089;DHT22;11713;48.506;8.966;2023-05-10T13:29:52;16.40;99.90
23089;DHT22;11713;48.506;8.966;2023-05-10T13:32:43;16.50;99.90
23089;DHT22;11713;48.506;8.966;2023-05-10T13:35:08;16.60;99.90
23089;DHT22;11713;48.506;8.966;2023-05-10T13:37:38;16.60;99.90
23089;DHT22;11713;48.506;8.966;2023-05-10T13:40:25;16.60;99.90
23089;DHT22;11713;48.506;8.966;2023-05-10T13:43:50;16.70;99.90
23089;DHT22;11713;48.506;8.966;2023-05-10T13:46:40;16.80;99.90
23089;DHT22;11713;48.506;8.966;2023-05-10T13:49:15;16.70;99.90
23089;DHT22;11713;48.506;8.966;2023-05-10T13:51:48;16.70;99.90
23089;DHT22;11713;48.506;8.966;2023-05-10T13:54:23;16.80;99.90
23089;DHT22;11713;48.506;8.966;2023-05-10T13:56:51;16.90;99.90
23089;DHT22;11713;48.506;8.966;2023-05-10T14:00:09;16.90;99.90
23089;DHT22;11713;48.506;8.966;2023-05-10T14:03:11;17.00;99.90
23089;DHT22;11713;48.506;8.966;2023-05-10T14:05:44;17.10;99.90
23089;DHT22;11713;48.506;8.966;2023-05-10T14:08:18;17.00;99.90
23089;DHT22;11713;48.506;8.966;2023-05-10T14:11:05;17.10;99.90
23089;DHT22;11713;48.506;8.966;2023-05-10T14:13:36;17.20;99.90
23089;DHT22;11713;48.506;8.966;2023-05-10T14:16:08;17.10;99.90
23089;DHT22;11713;48.506;8.966;2023-05-10T14:21:44;17.10;99.90
23089;DHT22;11713;48.506;8.966;2023-05-10T14:24:13;17.10;99.90
23089;DHT22;11713;48.506;8.966;2023-05-10T14:26:51;17.20;99.90
23089;DHT22;11713;48.506;8.966;2023-05-10T14:29:40;17.20;99.90
23089;DHT22;11713;48.506;8.966;2023-05-10T14:32:30;17.30;99.90
23089;DHT22;11713;48.506;8.966;2023-05-10T14:35:10;17.20;99.90
23089;DHT22;11713;48.506;8.966;2023-05-10T14:37:54;17.30;99.90
23089;DHT22;11713;48.506;8.966;2023-05-10T14:40:27;17.30;99.90
23089;DHT22;11713;48.506;8.966;2023-05-10T14:42:54;17.30;99.90
23089;DHT22;11713;48.506;8.966;2023-05-10T14:45:21;17.30;99.90
23089;DHT22;11713;48.506;8.966;2023-05-10T14:47:46;17.40;99.90
23089;DHT22;11713;48.506;8.966;2023-05-10T14:50:12;17.40;99.90
23089;DHT22;11713;48.506;8.966;2023-05-10T14:52:38;17.40;99.90
23089;DHT22;11713;48.506;8.966;2023-05-10T14:55:04;17.40;99.90
23089;DHT22;11713;48.506;8.966;2023-05-10T14:57:30;17.50;99.90
23089;DHT22;11713;48.506;8.966;2023-05-10T14:59:56;17.50;99.90
23089;DHT22;11713;48.506;8.966;2023-05-10T15:02:22;17.50;99.90
23089;DHT22;11713;48.506;8.966;2023-05-10T15:04:48;17.50;99.90
23089;DHT22;11713;48.506;8.966;2023-05-10T15:07:14;17.50;99.90
23089;DHT22;11713;48.506;8.966;2023-05-10T15:09:41;17.50;99.90
23089;DHT22;11713;48.506;8.966;2023-05-10T15:12:07;17.50;99.90
23089;DHT22;11713;48.506;8.966;2023-05-10T15:14:33;17.50;99.90
23089;DHT22;11713;48.506;8.966;2023-05-10T15:17:02;17.40;99.90
23089;DHT22;11713;48.506;8.966;2023-05-10T15:19:27;17.30;99.90
23089;DHT22;11713;48.506;8.966;2023-05-10T15:21:54;17.30;99.90
23089;DHT22;11713;48.506;8.966;2023-05-10T15:24:21;17.40;99.90
23089;DHT22;11713;48.506;8.966;2023-05-10T15:26:47;17.40;99.90
23089;DHT22;11713;48.506;8.966;2023-05-10T15:29:13;17.40;99.90
23089;DHT22;11713;48.506;8.966;2023-05-10T15:31:49;17.40;99.90
23089;DHT22;11713;48.506;8.966;2023-05-10T15:34:15;17.50;99.90
23089;DHT22;11713;48.506;8.966;2023-05-10T15:36:41;17.50;99.90
23089;DHT22;11713;48.506;8.966;2023-05-10T15:39:07;17.30;99.90
23089;DHT22;11713;48.506;8.966;2023-05-10T15:41:35;17.20;99.90
23089;DHT22;11713;48.506;8.966;2023-05-10T15:44:01;17.20;99.90
23089;DHT22;11713;48.506;8.966;2023-05-10T15:46:28;17.10;99.90
23089;DHT22;11713;48.506;8.966;2023-05-10T15:48:54;16.90;99.90
23089;DHT22;11713;48.506;8.966;2023-05-10T15:51:20;16.70;99.90
23089;DHT22;11713;48.506;8.966;2023-05-10T15:53:46;16.50;99.90
23089;DHT22;11713;48.506;8.966;2023-05-10T15:56:12;16.30;99.90
23089;DHT22;11713;48.506;8.966;2023-05-10T15:58:39;16.10;99.90
23089;DHT22;11713;48.506;8.966;2023-05-10T16:01:05;15.90;99.90
23089;DHT22;11713;48.506;8.966;2023-05-10T16:03:32;15.90;99.90